Time;durP1;ratioP1;P1;durP2;ratioP2;P2;SDS_P1;SDS_P2;PMS_P1;PMS_P2;Temp;Humidity;BMP_temperature;BMP_pressure;BME280_temperature;BME280_humidity;BME280_pressure;Samples;Min_cycle;Max_cycle;Signal;HPM_P1;HPM_P2
2021/12/15 00:00:42;;;;;;;48.4;19;;;;;;;4.14;100;96389.84;;;;
2021/12/15 00:01:43;;;;;;;48.4;19;;;;;;;4.14;100;96389.84;;;;
2021/12/15 00:02:45;;;;;;;48.4;19;;;;;;;4.14;100;96389.84;;;;
2021/12/15 00:03:47;;;;;;;48.4;19;;;;;;;4.14;100;96389.84;;;;
2021/12/15 00:04:49;;;;;;;57.34999;20.4;;;;;;;4.14;100;96386.75;;;;
2021/12/15 00:05:53;;;;;;;57.34999;20.4;;;;;;;4.14;100;96386.75;;;;
2021/12/15 00:06:54;;;;;;;57.34999;20.4;;;;;;;4.14;100;96386.75;;;;
2021/12/15 00:07:55;;;;;;;57.34999;20.4;;;;;;;4.14;100;96386.75;;;;
2021/12/15 00:08:59;;;;;;;57.34999;20.4;;;;;;;4.14;100;96386.75;;;;
2021/12/15 00:10:04;;;;;;;57.34999;20.4;;;;;;;4.14;100;96386.75;;;;
2021/12/15 00:11:06;;;;;;;57.34999;20.4;;;;;;;4.14;100;96386.75;;;;
2021/12/15 00:12:07;;;;;;;57.34999;20.4;;;;;;;4.14;100;96386.75;;;;
2021/12/15 00:13:10;;;;;;;57.34999;20.4;;;;;;;4.14;100;96386.75;;;;
2021/12/15 00:14:12;;;;;;;57.34999;20.4;;;;;;;4.14;100;96386.75;;;;
2021/12/15 00:15:15;;;;;;;55.85001;20.2;;;;;;;4.13;100;96396.2;;;;
2021/12/15 00:16:17;;;;;;;55.85001;20.2;;;;;;;4.13;100;96396.2;;;;
2021/12/15 00:17:19;;;;;;;55.85001;20.2;;;;;;;4.13;100;96396.2;;;;
2021/12/15 00:18:20;;;;;;;55.85001;20.2;;;;;;;4.13;100;96396.2;;;;
2021/12/15 00:19:21;;;;;;;55.85001;20.2;;;;;;;4.13;100;96396.2;;;;
2021/12/15 00:20:21;;;;;;;55.85001;20.2;;;;;;;4.13;100;96396.2;;;;
2021/12/15 00:21:23;;;;;;;55.85001;20.2;;;;;;;4.13;100;96396.2;;;;
2021/12/15 00:22:23;;;;;;;55.85001;20.2;;;;;;;4.13;100;96396.2;;;;
2021/12/15 00:23:24;;;;;;;55.85001;20.2;;;;;;;4.13;100;96396.2;;;;
2021/12/15 00:24:27;;;;;;;55.85001;20.2;;;;;;;4.13;100;96396.2;;;;
2021/12/15 00:25:27;;;;;;;55.85001;20.2;;;;;;;4.13;100;96396.2;;;;
2021/12/15 00:26:32;;;;;;;52.35;19.4;;;;;;;4.18;100;96403.21;;;;
2021/12/15 00:27:33;;;;;;;52.35;19.4;;;;;;;4.18;100;96403.21;;;;
2021/12/15 00:28:34;;;;;;;52.35;19.4;;;;;;;4.18;100;96403.21;;;;
2021/12/15 00:29:35;;;;;;;52.35;19.4;;;;;;;4.18;100;96403.21;;;;
2021/12/15 00:30:35;;;;;;;52.35;19.4;;;;;;;4.18;100;96403.21;;;;
2021/12/15 00:31:37;;;;;;;52.35;19.4;;;;;;;4.18;100;96403.21;;;;
2021/12/15 00:32:38;;;;;;;52.35;19.4;;;;;;;4.18;100;96403.21;;;;
2021/12/15 00:33:38;;;;;;;52.35;19.4;;;;;;;4.18;100;96403.21;;;;
2021/12/15 00:34:41;;;;;;;52.35;19.4;;;;;;;4.18;100;96403.21;;;;
2021/12/15 00:35:42;;;;;;;52.35;19.4;;;;;;;4.18;100;96403.21;;;;
2021/12/15 00:36:44;;;;;;;52.35;19.4;;;;;;;4.18;100;96403.21;;;;
2021/12/15 00:37:44;;;;;;;50.95;18.55;;;;;;;4.2;100;96406.13;;;;
2021/12/15 00:38:45;;;;;;;50.95;18.55;;;;;;;4.2;100;96406.13;;;;
2021/12/15 00:39:46;;;;;;;50.95;18.55;;;;;;;4.2;100;96406.13;;;;
2021/12/15 00:40:46;;;;;;;50.95;18.55;;;;;;;4.2;100;96406.13;;;;
2021/12/15 00:41:47;;;;;;;50.95;18.55;;;;;;;4.2;100;96406.13;;;;
2021/12/15 00:42:49;;;;;;;50.95;18.55;;;;;;;4.2;100;96406.13;;;;
2021/12/15 00:43:50;;;;;;;50.95;18.55;;;;;;;4.2;100;96406.13;;;;
2021/12/15 00:44:51;;;;;;;50.95;18.55;;;;;;;4.2;100;96406.13;;;;
2021/12/15 00:45:52;;;;;;;50.95;18.55;;;;;;;4.2;100;96406.13;;;;
2021/12/15 00:46:53;;;;;;;50.95;18.55;;;;;;;4.2;100;96406.13;;;;
2021/12/15 00:47:54;;;;;;;52;19.1;;;;;;;4.14;100;96401.37;;;;
2021/12/15 00:48:55;;;;;;;52;19.1;;;;;;;4.14;100;96401.37;;;;
2021/12/15 00:49:56;;;;;;;52;19.1;;;;;;;4.14;100;96401.37;;;;
2021/12/15 00:50:57;;;;;;;52;19.1;;;;;;;4.14;100;96401.37;;;;
2021/12/15 00:51:57;;;;;;;52;19.1;;;;;;;4.14;100;96401.37;;;;
2021/12/15 00:52:58;;;;;;;52;19.1;;;;;;;4.14;100;96401.37;;;;
2021/12/15 00:53:59;;;;;;;52;19.1;;;;;;;4.14;100;96401.37;;;;
2021/12/15 00:55:00;;;;;;;52;19.1;;;;;;;4.14;100;96401.37;;;;
2021/12/15 00:56:01;;;;;;;52;19.1;;;;;;;4.14;100;96401.37;;;;
2021/12/15 00:57:02;;;;;;;52;19.1;;;;;;;4.14;100;96401.37;;;;
2021/12/15 00:58:04;;;;;;;52;19.1;;;;;;;4.14;100;96401.37;;;;
2021/12/15 00:59:06;;;;;;;51.25;19;;;;;;;4.09;100;96410.41;;;;
2021/12/15 01:00:09;;;;;;;51.25;19;;;;;;;4.09;100;96410.41;;;;
2021/12/15 01:01:14;;;;;;;51.25;19;;;;;;;4.09;100;96410.41;;;;
2021/12/15 01:02:15;;;;;;;51.25;19;;;;;;;4.09;100;96410.41;;;;
2021/12/15 01:03:15;;;;;;;51.25;19;;;;;;;4.09;100;96410.41;;;;
2021/12/15 01:04:17;;;;;;;51.25;19;;;;;;;4.09;100;96410.41;;;;
2021/12/15 01:05:20;;;;;;;51.25;19;;;;;;;4.09;100;96410.41;;;;
2021/12/15 01:06:23;;;;;;;51.25;19;;;;;;;4.09;100;96410.41;;;;
2021/12/15 01:07:28;;;;;;;51.25;19;;;;;;;4.09;100;96410.41;;;;
2021/12/15 01:08:29;;;;;;;51.25;19;;;;;;;4.09;100;96410.41;;;;
2021/12/15 01:09:32;;;;;;;51.25;19;;;;;;;4.09;100;96410.41;;;;
2021/12/15 01:10:52;;;;;;;51.25;19;;;;;;;4.09;100;96410.41;;;;
2021/12/15 01:12:23;;;;;;;51.25;19;;;;;;;4.09;100;96410.41;;;;
2021/12/15 01:19:46;;;;;;;51.25;19;;;;;;;4.09;100;96410.41;;;;
2021/12/15 01:20:48;;;;;;;48.15;18.9;;;;;;;4.16;100;96437.28;;;;
2021/12/15 01:21:54;;;;;;;48.15;18.9;;;;;;;4.16;100;96437.28;;;;
2021/12/15 01:22:55;;;;;;;48.15;18.9;;;;;;;4.16;100;96437.28;;;;
2021/12/15 01:24:01;;;;;;;48.15;18.9;;;;;;;4.16;100;96437.28;;;;
2021/12/15 01:25:03;;;;;;;48.15;18.9;;;;;;;4.16;100;96437.28;;;;
2021/12/15 01:26:08;;;;;;;48.15;18.9;;;;;;;4.16;100;96437.28;;;;
2021/12/15 01:27:12;;;;;;;48.15;18.9;;;;;;;4.16;100;96437.28;;;;
2021/12/15 01:28:13;;;;;;;48.15;18.9;;;;;;;4.16;100;96437.28;;;;
2021/12/15 01:29:13;;;;;;;48.15;18.9;;;;;;;4.16;100;96437.28;;;;
2021/12/15 01:30:15;;;;;;;48.15;18.9;;;;;;;4.16;100;96437.28;;;;
2021/12/15 01:31:20;;;;;;;48.15;18.9;;;;;;;4.16;100;96437.28;;;;
2021/12/15 01:32:21;;;;;;;48.15;18.9;;;;;;;4.16;100;96437.28;;;;
2021/12/15 01:33:22;;;;;;;48.15;18.9;;;;;;;4.16;100;96437.28;;;;
2021/12/15 01:34:25;;;;;;;48.15;18.9;;;;;;;4.16;100;96437.28;;;;
2021/12/15 01:35:26;;;;;;;48.15;18.9;;;;;;;4.16;100;96437.28;;;;
2021/12/15 01:36:28;;;;;;;48.15;18.9;;;;;;;4.16;100;96437.28;;;;
2021/12/15 01:37:28;;;;;;;48.15;18.9;;;;;;;4.16;100;96437.28;;;;
2021/12/15 01:38:29;;;;;;;48.15;18.9;;;;;;;4.16;100;96437.28;;;;
2021/12/15 01:39:33;;;;;;;48.15;18.9;;;;;;;4.16;100;96437.28;;;;
2021/12/15 01:40:36;;;;;;;48.15;18.9;;;;;;;4.16;100;96437.28;;;;
2021/12/15 01:41:39;;;;;;;48.15;18.9;;;;;;;4.16;100;96437.28;;;;
2021/12/15 01:42:40;;;;;;;41.55;18.1;;;;;;;4.12;100;96436.89;;;;
2021/12/15 01:43:51;;;;;;;41.55;18.1;;;;;;;4.12;100;96436.89;;;;
2021/12/15 01:50:15;;;;;;;41.55;18.1;;;;;;;4.12;100;96436.89;;;;
2021/12/15 01:51:16;;;;;;;41.55;18.1;;;;;;;4.12;100;96436.89;;;;
2021/12/15 01:52:16;;;;;;;41.55;18.1;;;;;;;4.12;100;96436.89;;;;
2021/12/15 01:53:20;;;;;;;41.55;18.1;;;;;;;4.12;100;96436.89;;;;
2021/12/15 01:54:21;;;;;;;41.5;17.95;;;;;;;4.08;100;96444.41;;;;
2021/12/15 01:55:23;;;;;;;41.5;17.95;;;;;;;4.08;100;96444.41;;;;
2021/12/15 01:56:24;;;;;;;41.5;17.95;;;;;;;4.08;100;96444.41;;;;
2021/12/15 01:57:25;;;;;;;41.5;17.95;;;;;;;4.08;100;96444.41;;;;
2021/12/15 01:58:30;;;;;;;41.5;17.95;;;;;;;4.08;100;96444.41;;;;
2021/12/15 01:59:32;;;;;;;41.5;17.95;;;;;;;4.08;100;96444.41;;;;
2021/12/15 02:00:33;;;;;;;41.5;17.95;;;;;;;4.08;100;96444.41;;;;
2021/12/15 02:01:42;;;;;;;41.5;17.95;;;;;;;4.08;100;96444.41;;;;
2021/12/15 02:02:43;;;;;;;41.5;17.95;;;;;;;4.08;100;96444.41;;;;
2021/12/15 02:03:44;;;;;;;41.5;17.95;;;;;;;4.08;100;96444.41;;;;
2021/12/15 02:04:46;;;;;;;48.05;20.05;;;;;;;4.06;100;96447.33;;;;
2021/12/15 02:05:47;;;;;;;48.05;20.05;;;;;;;4.06;100;96447.33;;;;
2021/12/15 02:06:48;;;;;;;48.05;20.05;;;;;;;4.06;100;96447.33;;;;
2021/12/15 02:07:49;;;;;;;48.05;20.05;;;;;;;4.06;100;96447.33;;;;
2021/12/15 02:08:50;;;;;;;48.05;20.05;;;;;;;4.06;100;96447.33;;;;
2021/12/15 02:10:01;;;;;;;48.05;20.05;;;;;;;4.06;100;96447.33;;;;
2021/12/15 02:11:05;;;;;;;48.05;20.05;;;;;;;4.06;100;96447.33;;;;
2021/12/15 02:12:06;;;;;;;48.05;20.05;;;;;;;4.06;100;96447.33;;;;
2021/12/15 02:13:08;;;;;;;48.05;20.05;;;;;;;4.06;100;96447.33;;;;
2021/12/15 02:14:15;;;;;;;48.05;20.05;;;;;;;4.06;100;96447.33;;;;
2021/12/15 02:15:16;;;;;;;48.05;20.05;;;;;;;4.06;100;96447.33;;;;
2021/12/15 02:16:22;;;;;;;46.3;20.1;;;;;;;4.05;100;96439.79;;;;
2021/12/15 02:17:22;;;;;;;46.3;20.1;;;;;;;4.05;100;96439.79;;;;
2021/12/15 02:18:25;;;;;;;46.3;20.1;;;;;;;4.05;100;96439.79;;;;
2021/12/15 02:19:28;;;;;;;46.3;20.1;;;;;;;4.05;100;96439.79;;;;
2021/12/15 02:20:29;;;;;;;46.3;20.1;;;;;;;4.05;100;96439.79;;;;
2021/12/15 02:21:33;;;;;;;46.3;20.1;;;;;;;4.05;100;96439.79;;;;
2021/12/15 02:22:34;;;;;;;46.3;20.1;;;;;;;4.05;100;96439.79;;;;
2021/12/15 02:23:38;;;;;;;46.3;20.1;;;;;;;4.05;100;96439.79;;;;
2021/12/15 02:24:42;;;;;;;46.3;20.1;;;;;;;4.05;100;96439.79;;;;
2021/12/15 02:25:43;;;;;;;46.3;20.1;;;;;;;4.05;100;96439.79;;;;
2021/12/15 02:26:49;;;;;;;50.65;19.2;;;;;;;4.08;100;96435.05;;;;
2021/12/15 02:27:50;;;;;;;50.65;19.2;;;;;;;4.08;100;96435.05;;;;
2021/12/15 02:28:51;;;;;;;50.65;19.2;;;;;;;4.08;100;96435.05;;;;
2021/12/15 02:29:59;;;;;;;50.65;19.2;;;;;;;4.08;100;96435.05;;;;
2021/12/15 02:31:10;;;;;;;50.65;19.2;;;;;;;4.08;100;96435.05;;;;
2021/12/15 02:32:18;;;;;;;50.65;19.2;;;;;;;4.08;100;96435.05;;;;
2021/12/15 02:33:42;;;;;;;50.65;19.2;;;;;;;4.08;100;96435.05;;;;
2021/12/15 02:35:07;;;;;;;50.65;19.2;;;;;;;4.08;100;96435.05;;;;
2021/12/15 02:41:20;;;;;;;44.9;17.85;;;;;;;4.11;100;96428.03;;;;
2021/12/15 02:42:22;;;;;;;44.9;17.85;;;;;;;4.11;100;96428.03;;;;
2021/12/15 02:43:26;;;;;;;44.9;17.85;;;;;;;4.11;100;96428.03;;;;
2021/12/15 02:44:26;;;;;;;44.9;17.85;;;;;;;4.11;100;96428.03;;;;
2021/12/15 02:45:27;;;;;;;44.9;17.85;;;;;;;4.11;100;96428.03;;;;
2021/12/15 02:46:28;;;;;;;44.9;17.85;;;;;;;4.11;100;96428.03;;;;
2021/12/15 02:47:31;;;;;;;44.9;17.85;;;;;;;4.11;100;96428.03;;;;
2021/12/15 02:48:32;;;;;;;41.10001;17.2;;;;;;;4.12;100;96425.67;;;;
2021/12/15 02:49:33;;;;;;;41.10001;17.2;;;;;;;4.12;100;96425.67;;;;
2021/12/15 02:50:36;;;;;;;41.10001;17.2;;;;;;;4.12;100;96425.67;;;;
2021/12/15 02:51:36;;;;;;;41.10001;17.2;;;;;;;4.12;100;96425.67;;;;
2021/12/15 02:52:39;;;;;;;41.10001;17.2;;;;;;;4.12;100;96425.67;;;;
2021/12/15 02:53:40;;;;;;;41.10001;17.2;;;;;;;4.12;100;96425.67;;;;
2021/12/15 02:54:41;;;;;;;41.10001;17.2;;;;;;;4.12;100;96425.67;;;;
2021/12/15 02:55:42;;;;;;;41.10001;17.2;;;;;;;4.12;100;96425.67;;;;
2021/12/15 02:56:43;;;;;;;41.10001;17.2;;;;;;;4.12;100;96425.67;;;;
2021/12/15 02:57:46;;;;;;;41.10001;17.2;;;;;;;4.12;100;96425.67;;;;
2021/12/15 02:58:52;;;;;;;41.10001;17.2;;;;;;;4.12;100;96425.67;;;;
2021/12/15 02:59:59;;;;;;;42.7;18.35;;;;;;;4.11;100;96429.78;;;;
2021/12/15 03:01:06;;;;;;;42.7;18.35;;;;;;;4.11;100;96429.78;;;;
2021/12/15 03:02:17;;;;;;;42.7;18.35;;;;;;;4.11;100;96429.78;;;;
2021/12/15 03:03:52;;;;;;;42.7;18.35;;;;;;;4.11;100;96429.78;;;;
2021/12/15 03:05:03;;;;;;;42.7;18.35;;;;;;;4.11;100;96429.78;;;;
2021/12/15 03:06:15;;;;;;;42.7;18.35;;;;;;;4.11;100;96429.78;;;;
2021/12/15 03:07:26;;;;;;;42.7;18.35;;;;;;;4.11;100;96429.78;;;;
2021/12/15 03:08:46;;;;;;;42.7;18.35;;;;;;;4.11;100;96429.78;;;;
2021/12/15 03:19:02;;;;;;;44.45;18.25;;;;;;;4.1;100;96430.77;;;;
2021/12/15 03:20:03;;;;;;;44.45;18.25;;;;;;;4.1;100;96430.77;;;;
2021/12/15 03:21:07;;;;;;;44.45;18.25;;;;;;;4.1;100;96430.77;;;;
2021/12/15 03:22:12;;;;;;;42.8;19.2;;;;;;;4.15;100;96428.52;;;;
2021/12/15 03:23:13;;;;;;;42.8;19.2;;;;;;;4.15;100;96428.52;;;;
2021/12/15 03:24:19;;;;;;;42.8;19.2;;;;;;;4.15;100;96428.52;;;;
2021/12/15 03:25:28;;;;;;;42.8;19.2;;;;;;;4.15;100;96428.52;;;;
2021/12/15 03:26:32;;;;;;;42.8;19.2;;;;;;;4.15;100;96428.52;;;;
2021/12/15 03:38:00;;;;;;;45.65;19.15;;;;;;;4.18;100;96419.67;;;;
2021/12/15 03:39:01;;;;;;;45.65;19.15;;;;;;;4.18;100;96419.67;;;;
2021/12/15 03:40:03;;;;;;;45.65;19.15;;;;;;;4.18;100;96419.67;;;;
2021/12/15 03:41:09;;;;;;;45.65;19.15;;;;;;;4.18;100;96419.67;;;;
2021/12/15 03:42:11;;;;;;;45.65;19.15;;;;;;;4.18;100;96419.67;;;;
2021/12/15 03:43:13;;;;;;;45.65;19.15;;;;;;;4.18;100;96419.67;;;;
2021/12/15 03:44:15;;;;;;;49.55;20.15;;;;;;;4.21;100;96417.99;;;;
2021/12/15 03:45:16;;;;;;;49.55;20.15;;;;;;;4.21;100;96417.99;;;;
2021/12/15 03:46:21;;;;;;;49.55;20.15;;;;;;;4.21;100;96417.99;;;;
2021/12/15 03:47:22;;;;;;;49.55;20.15;;;;;;;4.21;100;96417.99;;;;
2021/12/15 03:48:26;;;;;;;49.55;20.15;;;;;;;4.21;100;96417.99;;;;
2021/12/15 03:49:30;;;;;;;49.55;20.15;;;;;;;4.21;100;96417.99;;;;
2021/12/15 03:50:31;;;;;;;49.55;20.15;;;;;;;4.21;100;96417.99;;;;
2021/12/15 03:51:32;;;;;;;49.55;20.15;;;;;;;4.21;100;96417.99;;;;
2021/12/15 03:52:32;;;;;;;49.55;20.15;;;;;;;4.21;100;96417.99;;;;
2021/12/15 03:53:33;;;;;;;49.55;20.15;;;;;;;4.21;100;96417.99;;;;
2021/12/15 03:54:34;;;;;;;48;20.1;;;;;;;4.22;100;96433.45;;;;
2021/12/15 03:55:35;;;;;;;48;20.1;;;;;;;4.22;100;96433.45;;;;
2021/12/15 03:56:40;;;;;;;48;20.1;;;;;;;4.22;100;96433.45;;;;
2021/12/15 03:57:40;;;;;;;48;20.1;;;;;;;4.22;100;96433.45;;;;
2021/12/15 03:58:41;;;;;;;48;20.1;;;;;;;4.22;100;96433.45;;;;
2021/12/15 03:59:43;;;;;;;48;20.1;;;;;;;4.22;100;96433.45;;;;
2021/12/15 04:00:44;;;;;;;48;20.1;;;;;;;4.22;100;96433.45;;;;
2021/12/15 04:01:48;;;;;;;48;20.1;;;;;;;4.22;100;96433.45;;;;
2021/12/15 04:02:48;;;;;;;48;20.1;;;;;;;4.22;100;96433.45;;;;
2021/12/15 04:03:50;;;;;;;48;20.1;;;;;;;4.22;100;96433.45;;;;
2021/12/15 04:04:53;;;;;;;48;20.1;;;;;;;4.22;100;96433.45;;;;
2021/12/15 04:05:54;;;;;;;48;20.1;;;;;;;4.22;100;96433.45;;;;
2021/12/15 04:06:57;;;;;;;48;20.1;;;;;;;4.22;100;96433.45;;;;
2021/12/15 04:07:58;;;;;;;48;20.1;;;;;;;4.22;100;96433.45;;;;
2021/12/15 04:08:59;;;;;;;48;20.1;;;;;;;4.22;100;96433.45;;;;
2021/12/15 04:10:01;;;;;;;48;20.1;;;;;;;4.22;100;96433.45;;;;
2021/12/15 04:11:04;;;;;;;48;20.1;;;;;;;4.22;100;96433.45;;;;
2021/12/15 04:12:09;;;;;;;48;20.1;;;;;;;4.22;100;96433.45;;;;
2021/12/15 04:13:13;;;;;;;48;20.1;;;;;;;4.22;100;96433.45;;;;
2021/12/15 04:14:19;;;;;;;48;20.1;;;;;;;4.22;100;96433.45;;;;
2021/12/15 04:15:26;;;;;;;48;20.1;;;;;;;4.22;100;96433.45;;;;
2021/12/15 04:16:42;;;;;;;51.55;21.15;;;;;;;4.17;100;96446.98;;;;
2021/12/15 04:17:43;;;;;;;51.55;21.15;;;;;;;4.17;100;96446.98;;;;
2021/12/15 04:18:43;;;;;;;51.55;21.15;;;;;;;4.17;100;96446.98;;;;
2021/12/15 04:19:44;;;;;;;51.55;21.15;;;;;;;4.17;100;96446.98;;;;
2021/12/15 04:20:45;;;;;;;51.55;21.15;;;;;;;4.17;100;96446.98;;;;
2021/12/15 04:21:45;;;;;;;51.55;21.15;;;;;;;4.17;100;96446.98;;;;
2021/12/15 04:22:48;;;;;;;51.55;21.15;;;;;;;4.17;100;96446.98;;;;
2021/12/15 04:23:49;;;;;;;51.55;21.15;;;;;;;4.17;100;96446.98;;;;
2021/12/15 04:24:50;;;;;;;51.55;21.15;;;;;;;4.17;100;96446.98;;;;
2021/12/15 04:25:52;;;;;;;51.55;21.15;;;;;;;4.17;100;96446.98;;;;
2021/12/15 04:26:55;;;;;;;51.55;21.15;;;;;;;4.17;100;96446.98;;;;
2021/12/15 04:27:58;;;;;;;47.55;20.15;;;;;;;4.18;100;96456.17;;;;
2021/12/15 04:29:04;;;;;;;47.55;20.15;;;;;;;4.18;100;96456.17;;;;
2021/12/15 04:30:05;;;;;;;47.55;20.15;;;;;;;4.18;100;96456.17;;;;
2021/12/15 04:31:09;;;;;;;47.55;20.15;;;;;;;4.18;100;96456.17;;;;
2021/12/15 04:32:13;;;;;;;47.55;20.15;;;;;;;4.18;100;96456.17;;;;
2021/12/15 04:33:18;;;;;;;47.55;20.15;;;;;;;4.18;100;96456.17;;;;
2021/12/15 04:34:23;;;;;;;47.55;20.15;;;;;;;4.18;100;96456.17;;;;
2021/12/15 04:35:24;;;;;;;47.55;20.15;;;;;;;4.18;100;96456.17;;;;
2021/12/15 04:36:25;;;;;;;47.55;20.15;;;;;;;4.18;100;96456.17;;;;
2021/12/15 04:37:29;;;;;;;47.55;20.15;;;;;;;4.18;100;96456.17;;;;
2021/12/15 04:38:30;;;;;;;50.35;20;;;;;;;4.18;100;96466.02;;;;
2021/12/15 04:39:32;;;;;;;50.35;20;;;;;;;4.18;100;96466.02;;;;
2021/12/15 04:40:32;;;;;;;50.35;20;;;;;;;4.18;100;96466.02;;;;
2021/12/15 04:41:33;;;;;;;50.35;20;;;;;;;4.18;100;96466.02;;;;
2021/12/15 04:42:37;;;;;;;50.35;20;;;;;;;4.18;100;96466.02;;;;
2021/12/15 04:43:40;;;;;;;50.35;20;;;;;;;4.18;100;96466.02;;;;
2021/12/15 04:44:41;;;;;;;50.35;20;;;;;;;4.18;100;96466.02;;;;
2021/12/15 04:45:41;;;;;;;50.35;20;;;;;;;4.18;100;96466.02;;;;
2021/12/15 04:46:42;;;;;;;50.35;20;;;;;;;4.18;100;96466.02;;;;
2021/12/15 04:47:46;;;;;;;50.35;20;;;;;;;4.18;100;96466.02;;;;
2021/12/15 04:48:49;;;;;;;50.35;20;;;;;;;4.18;100;96466.02;;;;
2021/12/15 04:49:50;;;;;;;45.6;18.6;;;;;;;4.18;100;96468.69;;;;
2021/12/15 04:50:54;;;;;;;45.6;18.6;;;;;;;4.18;100;96468.69;;;;
2021/12/15 04:51:55;;;;;;;45.6;18.6;;;;;;;4.18;100;96468.69;;;;
2021/12/15 04:52:59;;;;;;;45.6;18.6;;;;;;;4.18;100;96468.69;;;;
2021/12/15 04:54:00;;;;;;;45.6;18.6;;;;;;;4.18;100;96468.69;;;;
2021/12/15 04:55:02;;;;;;;45.6;18.6;;;;;;;4.18;100;96468.69;;;;
2021/12/15 04:56:06;;;;;;;45.6;18.6;;;;;;;4.18;100;96468.69;;;;
2021/12/15 04:57:07;;;;;;;45.6;18.6;;;;;;;4.18;100;96468.69;;;;
2021/12/15 04:58:08;;;;;;;45.6;18.6;;;;;;;4.18;100;96468.69;;;;
2021/12/15 04:59:11;;;;;;;45.6;18.6;;;;;;;4.18;100;96468.69;;;;
2021/12/15 05:00:13;;;;;;;48.14999;18.8;;;;;;;4.18;100;96463.34;;;;
2021/12/15 05:01:17;;;;;;;48.14999;18.8;;;;;;;4.18;100;96463.34;;;;
2021/12/15 05:02:19;;;;;;;48.14999;18.8;;;;;;;4.18;100;96463.34;;;;
2021/12/15 05:03:22;;;;;;;48.14999;18.8;;;;;;;4.18;100;96463.34;;;;
2021/12/15 05:04:23;;;;;;;48.14999;18.8;;;;;;;4.18;100;96463.34;;;;
2021/12/15 05:05:24;;;;;;;48.14999;18.8;;;;;;;4.18;100;96463.34;;;;
2021/12/15 05:06:26;;;;;;;48.14999;18.8;;;;;;;4.18;100;96463.34;;;;
2021/12/15 05:07:27;;;;;;;48.14999;18.8;;;;;;;4.18;100;96463.34;;;;
2021/12/15 05:08:27;;;;;;;48.14999;18.8;;;;;;;4.18;100;96463.34;;;;
2021/12/15 05:09:28;;;;;;;48.14999;18.8;;;;;;;4.18;100;96463.34;;;;
2021/12/15 05:10:29;;;;;;;48.14999;18.8;;;;;;;4.18;100;96463.34;;;;
2021/12/15 05:11:30;;;;;;;50.15;20.15;;;;;;;4.18;100;96470.87;;;;
2021/12/15 05:12:32;;;;;;;50.15;20.15;;;;;;;4.18;100;96470.87;;;;
2021/12/15 05:13:34;;;;;;;50.15;20.15;;;;;;;4.18;100;96470.87;;;;
2021/12/15 05:14:34;;;;;;;50.15;20.15;;;;;;;4.18;100;96470.87;;;;
2021/12/15 05:15:35;;;;;;;50.15;20.15;;;;;;;4.18;100;96470.87;;;;
2021/12/15 05:16:36;;;;;;;50.15;20.15;;;;;;;4.18;100;96470.87;;;;
2021/12/15 05:17:37;;;;;;;50.15;20.15;;;;;;;4.18;100;96470.87;;;;
2021/12/15 05:18:38;;;;;;;50.15;20.15;;;;;;;4.18;100;96470.87;;;;
2021/12/15 05:19:39;;;;;;;50.15;20.15;;;;;;;4.18;100;96470.87;;;;
2021/12/15 05:20:40;;;;;;;50.15;20.15;;;;;;;4.18;100;96470.87;;;;
2021/12/15 05:21:41;;;;;;;50.15;20.15;;;;;;;4.18;100;96470.87;;;;
2021/12/15 05:22:42;;;;;;;49.15;20.9;;;;;;;4.14;100;96480.71;;;;
2021/12/15 05:23:44;;;;;;;49.15;20.9;;;;;;;4.14;100;96480.71;;;;
2021/12/15 05:24:45;;;;;;;49.15;20.9;;;;;;;4.14;100;96480.71;;;;
2021/12/15 05:25:46;;;;;;;49.15;20.9;;;;;;;4.14;100;96480.71;;;;
2021/12/15 05:26:48;;;;;;;49.15;20.9;;;;;;;4.14;100;96480.71;;;;
2021/12/15 05:27:49;;;;;;;49.15;20.9;;;;;;;4.14;100;96480.71;;;;
2021/12/15 05:28:51;;;;;;;49.15;20.9;;;;;;;4.14;100;96480.71;;;;
2021/12/15 05:29:51;;;;;;;49.15;20.9;;;;;;;4.14;100;96480.71;;;;
2021/12/15 05:30:52;;;;;;;49.15;20.9;;;;;;;4.14;100;96480.71;;;;
2021/12/15 05:31:54;;;;;;;49.15;20.9;;;;;;;4.14;100;96480.71;;;;
2021/12/15 05:32:55;;;;;;;49.15;20.9;;;;;;;4.14;100;96480.71;;;;
2021/12/15 05:33:56;;;;;;;50.85;20.65;;;;;;;4.11;100;96493.5;;;;
2021/12/15 05:34:59;;;;;;;50.85;20.65;;;;;;;4.11;100;96493.5;;;;
2021/12/15 05:35:59;;;;;;;50.85;20.65;;;;;;;4.11;100;96493.5;;;;
2021/12/15 05:37:00;;;;;;;50.85;20.65;;;;;;;4.11;100;96493.5;;;;
2021/12/15 05:38:01;;;;;;;50.85;20.65;;;;;;;4.11;100;96493.5;;;;
2021/12/15 05:39:06;;;;;;;50.85;20.65;;;;;;;4.11;100;96493.5;;;;
2021/12/15 05:40:07;;;;;;;50.85;20.65;;;;;;;4.11;100;96493.5;;;;
2021/12/15 05:41:09;;;;;;;50.85;20.65;;;;;;;4.11;100;96493.5;;;;
2021/12/15 05:42:10;;;;;;;50.85;20.65;;;;;;;4.11;100;96493.5;;;;
2021/12/15 05:43:11;;;;;;;50.85;20.65;;;;;;;4.11;100;96493.5;;;;
2021/12/15 05:44:11;;;;;;;49.1;21.3;;;;;;;4.15;100;96504.69;;;;
2021/12/15 05:45:12;;;;;;;49.1;21.3;;;;;;;4.15;100;96504.69;;;;
2021/12/15 05:46:13;;;;;;;49.1;21.3;;;;;;;4.15;100;96504.69;;;;
2021/12/15 05:47:13;;;;;;;49.1;21.3;;;;;;;4.15;100;96504.69;;;;
2021/12/15 05:48:14;;;;;;;49.1;21.3;;;;;;;4.15;100;96504.69;;;;
2021/12/15 05:49:15;;;;;;;49.1;21.3;;;;;;;4.15;100;96504.69;;;;
2021/12/15 05:50:16;;;;;;;49.1;21.3;;;;;;;4.15;100;96504.69;;;;
2021/12/15 05:51:17;;;;;;;49.1;21.3;;;;;;;4.15;100;96504.69;;;;
2021/12/15 05:52:17;;;;;;;49.1;21.3;;;;;;;4.15;100;96504.69;;;;
2021/12/15 05:53:19;;;;;;;49.1;21.3;;;;;;;4.15;100;96504.69;;;;
2021/12/15 05:54:20;;;;;;;49.1;21.3;;;;;;;4.15;100;96504.69;;;;
2021/12/15 05:55:21;;;;;;;53.75;22.1;;;;;;;4.17;100;96505.36;;;;
2021/12/15 05:56:21;;;;;;;53.75;22.1;;;;;;;4.17;100;96505.36;;;;
2021/12/15 05:57:22;;;;;;;53.75;22.1;;;;;;;4.17;100;96505.36;;;;
2021/12/15 05:58:23;;;;;;;53.75;22.1;;;;;;;4.17;100;96505.36;;;;
2021/12/15 05:59:23;;;;;;;53.75;22.1;;;;;;;4.17;100;96505.36;;;;
2021/12/15 06:00:25;;;;;;;53.75;22.1;;;;;;;4.17;100;96505.36;;;;
2021/12/15 06:01:29;;;;;;;53.75;22.1;;;;;;;4.17;100;96505.36;;;;
2021/12/15 06:02:30;;;;;;;53.75;22.1;;;;;;;4.17;100;96505.36;;;;
2021/12/15 06:03:30;;;;;;;53.75;22.1;;;;;;;4.17;100;96505.36;;;;
2021/12/15 06:04:33;;;;;;;53.75;22.1;;;;;;;4.17;100;96505.36;;;;
2021/12/15 06:05:34;;;;;;;53.75;22.1;;;;;;;4.17;100;96505.36;;;;
2021/12/15 06:06:36;;;;;;;66.75;24;;;;;;;4.2;100;96514.79;;;;
2021/12/15 06:07:37;;;;;;;66.75;24;;;;;;;4.2;100;96514.79;;;;
2021/12/15 06:08:37;;;;;;;66.75;24;;;;;;;4.2;100;96514.79;;;;
2021/12/15 06:09:38;;;;;;;66.75;24;;;;;;;4.2;100;96514.79;;;;
2021/12/15 06:10:39;;;;;;;66.75;24;;;;;;;4.2;100;96514.79;;;;
2021/12/15 06:11:40;;;;;;;66.75;24;;;;;;;4.2;100;96514.79;;;;
2021/12/15 06:12:43;;;;;;;66.75;24;;;;;;;4.2;100;96514.79;;;;
2021/12/15 06:13:47;;;;;;;66.75;24;;;;;;;4.2;100;96514.79;;;;
2021/12/15 06:14:48;;;;;;;66.75;24;;;;;;;4.2;100;96514.79;;;;
2021/12/15 06:15:49;;;;;;;66.75;24;;;;;;;4.2;100;96514.79;;;;
2021/12/15 06:16:50;;;;;;;66.75;24;;;;;;;4.2;100;96514.79;;;;
2021/12/15 06:17:51;;;;;;;69.7;24.2;;;;;;;4.21;100;96528.91;;;;
2021/12/15 06:18:55;;;;;;;69.7;24.2;;;;;;;4.21;100;96528.91;;;;
2021/12/15 06:19:56;;;;;;;69.7;24.2;;;;;;;4.21;100;96528.91;;;;
2021/12/15 06:20:57;;;;;;;69.7;24.2;;;;;;;4.21;100;96528.91;;;;
2021/12/15 06:21:58;;;;;;;69.7;24.2;;;;;;;4.21;100;96528.91;;;;
2021/12/15 06:23:01;;;;;;;69.7;24.2;;;;;;;4.21;100;96528.91;;;;
2021/12/15 06:24:02;;;;;;;69.7;24.2;;;;;;;4.21;100;96528.91;;;;
2021/12/15 06:25:03;;;;;;;69.7;24.2;;;;;;;4.21;100;96528.91;;;;
2021/12/15 06:26:05;;;;;;;69.7;24.2;;;;;;;4.21;100;96528.91;;;;
2021/12/15 06:27:16;;;;;;;69.7;24.2;;;;;;;4.21;100;96528.91;;;;
2021/12/15 06:28:17;;;;;;;71.10001;23.3;;;;;;;4.22;100;96547.97;;;;
2021/12/15 06:29:18;;;;;;;71.10001;23.3;;;;;;;4.22;100;96547.97;;;;
2021/12/15 06:30:19;;;;;;;71.10001;23.3;;;;;;;4.22;100;96547.97;;;;
2021/12/15 06:31:19;;;;;;;71.10001;23.3;;;;;;;4.22;100;96547.97;;;;
2021/12/15 06:32:20;;;;;;;71.10001;23.3;;;;;;;4.22;100;96547.97;;;;
2021/12/15 06:33:21;;;;;;;71.10001;23.3;;;;;;;4.22;100;96547.97;;;;
2021/12/15 06:34:23;;;;;;;71.10001;23.3;;;;;;;4.22;100;96547.97;;;;
2021/12/15 06:35:23;;;;;;;71.10001;23.3;;;;;;;4.22;100;96547.97;;;;
2021/12/15 06:36:25;;;;;;;71.10001;23.3;;;;;;;4.22;100;96547.97;;;;
2021/12/15 06:37:26;;;;;;;71.10001;23.3;;;;;;;4.22;100;96547.97;;;;
2021/12/15 06:38:27;;;;;;;71.10001;23.3;;;;;;;4.22;100;96547.97;;;;
2021/12/15 06:39:30;;;;;;;70.15;23.55;;;;;;;4.24;100;96564.26;;;;
2021/12/15 06:40:30;;;;;;;70.15;23.55;;;;;;;4.24;100;96564.26;;;;
2021/12/15 06:41:31;;;;;;;70.15;23.55;;;;;;;4.24;100;96564.26;;;;
2021/12/15 06:42:33;;;;;;;70.15;23.55;;;;;;;4.24;100;96564.26;;;;
2021/12/15 06:43:33;;;;;;;70.15;23.55;;;;;;;4.24;100;96564.26;;;;
2021/12/15 06:44:38;;;;;;;70.15;23.55;;;;;;;4.24;100;96564.26;;;;
2021/12/15 06:45:52;;;;;;;70.15;23.55;;;;;;;4.24;100;96564.26;;;;
2021/12/15 06:47:23;;;;;;;70.15;23.55;;;;;;;4.24;100;96564.26;;;;
2021/12/15 06:58:47;;;;;;;69.2;22.95;;;;;;;4.27;100;96568.34;;;;
2021/12/15 06:59:47;;;;;;;69.2;22.95;;;;;;;4.27;100;96568.34;;;;
2021/12/15 07:00:48;;;;;;;69.2;22.95;;;;;;;4.27;100;96568.34;;;;
2021/12/15 07:01:51;;;;;;;74.49998;25.55;;;;;;;4.3;100;96578.8;;;;
2021/12/15 07:02:53;;;;;;;74.49998;25.55;;;;;;;4.3;100;96578.8;;;;
2021/12/15 07:03:54;;;;;;;74.49998;25.55;;;;;;;4.3;100;96578.8;;;;
2021/12/15 07:04:54;;;;;;;74.49998;25.55;;;;;;;4.3;100;96578.8;;;;
2021/12/15 07:05:55;;;;;;;74.49998;25.55;;;;;;;4.3;100;96578.8;;;;
2021/12/15 07:06:56;;;;;;;74.49998;25.55;;;;;;;4.3;100;96578.8;;;;
2021/12/15 07:07:57;;;;;;;74.49998;25.55;;;;;;;4.3;100;96578.8;;;;
2021/12/15 07:09:00;;;;;;;74.49998;25.55;;;;;;;4.3;100;96578.8;;;;